createdAt,value
2023-05-28T00:00:47.586Z,53.80
2023-05-28T00:03:18.076Z,55.40
2023-05-28T00:05:45.794Z,54.89
2023-05-28T00:08:12.424Z,56.23
2023-05-28T00:10:38.882Z,56.36
2023-05-28T00:13:07.625Z,56.60
2023-05-28T00:15:41.273Z,58.35
2023-05-28T00:18:12.819Z,57.24
2023-05-28T00:20:39.684Z,57.55
2023-05-28T00:23:06.987Z,59.63
2023-05-28T00:25:35.997Z,58.38
2023-05-28T00:28:02.519Z,57.54
2023-05-28T00:30:31.068Z,60.15
2023-05-28T00:32:57.623Z,60.41
2023-05-28T00:35:24.228Z,58.39
2023-05-28T00:37:50.715Z,58.57
2023-05-28T00:40:19.077Z,58.74
2023-05-28T00:42:47.008Z,59.95
2023-05-28T00:45:15.801Z,59.91
2023-05-28T00:47:42.385Z,59.32
2023-05-28T00:50:10.187Z,58.50
2023-05-28T00:52:37.434Z,60.14
2023-05-28T00:55:14.525Z,61.49
2023-05-28T00:57:44.297Z,60.93
2023-05-28T01:00:13.020Z,61.71
2023-05-28T01:02:39.586Z,62.51
2023-05-28T01:05:06.362Z,61.75
2023-05-28T01:07:33.804Z,63.63
2023-05-28T01:10:00.525Z,63.88
2023-05-28T01:12:32.593Z,63.41
2023-05-28T01:14:59.208Z,65.30
2023-05-28T01:17:26.355Z,65.19
2023-05-28T01:19:53.022Z,65.76
2023-05-28T01:22:26.749Z,65.63
2023-05-28T01:24:53.499Z,67.37
2023-05-28T01:27:20.676Z,67.05
2023-05-28T01:29:47.132Z,67.80
2023-05-28T01:32:13.904Z,68.81
2023-05-28T01:34:40.536Z,67.53
2023-05-28T01:37:11.998Z,67.83
2023-05-28T01:39:44.418Z,68.40
2023-05-28T01:42:12.680Z,68.63
2023-05-28T01:44:40.144Z,69.49
2023-05-28T01:47:07.009Z,70.63
2023-05-28T01:49:33.500Z,70.67
2023-05-28T01:52:00.011Z,71.20
2023-05-28T01:54:26.781Z,71.05
2023-05-28T01:56:53.393Z,72.42
2023-05-28T01:59:19.952Z,73.34
2023-05-28T02:01:49.009Z,72.65
2023-05-28T02:04:15.933Z,73.36
2023-05-28T02:06:46.729Z,73.43
2023-05-28T02:09:13.248Z,72.48
2023-05-28T02:11:39.639Z,73.99
2023-05-28T02:14:06.135Z,74.08
2023-05-28T02:16:32.826Z,75.01
2023-05-28T02:19:00.231Z,73.41
2023-05-28T02:21:26.681Z,74.49
2023-05-28T02:23:53.230Z,75.22
2023-05-28T02:26:20.071Z,75.17
2023-05-28T02:28:48.789Z,75.73
2023-05-28T02:31:15.546Z,74.88
2023-05-28T02:33:43.085Z,76.73
2023-05-28T02:36:15.317Z,77.31
2023-05-28T02:38:42.407Z,76.27
2023-05-28T02:41:09.860Z,76.69
2023-05-28T02:43:36.975Z,76.91
2023-05-28T02:46:03.492Z,77.70
2023-05-28T02:48:32.571Z,76.86
2023-05-28T02:50:58.989Z,76.53
2023-05-28T02:53:31.406Z,77.98
2023-05-28T02:55:58.296Z,78.71
2023-05-28T02:58:29.589Z,78.50
2023-05-28T03:00:56.284Z,77.97
2023-05-28T03:03:25.957Z,78.88
2023-05-28T03:05:52.822Z,79.17
2023-05-28T03:08:19.590Z,79.79
2023-05-28T03:10:48.377Z,79.23
2023-05-28T03:13:14.917Z,80.02
2023-05-28T03:15:41.468Z,80.94
2023-05-28T03:18:07.980Z,79.67
2023-05-28T03:20:34.874Z,81.24
2023-05-28T03:23:01.482Z,80.15
2023-05-28T03:25:28.068Z,81.03
2023-05-28T03:27:57.469Z,81.54
2023-05-28T03:30:24.136Z,81.39
2023-05-28T03:32:51.237Z,80.27
2023-05-28T03:35:18.283Z,80.74
2023-05-28T03:37:44.979Z,81.10
2023-05-28T03:40:12.090Z,82.01
2023-05-28T03:42:39.356Z,82.37
2023-05-28T03:45:06.740Z,82.58
2023-05-28T03:47:34.393Z,82.52
2023-05-28T03:50:01.011Z,82.23
2023-05-28T03:52:28.595Z,81.71
2023-05-28T03:54:55.128Z,82.37
2023-05-28T03:57:21.627Z,82.35
2023-05-28T03:59:48.151Z,81.87
2023-05-28T04:02:14.812Z,81.95
2023-05-28T04:04:41.433Z,82.83
2023-05-28T04:07:10.490Z,81.80
2023-05-28T04:09:36.873Z,81.75
2023-05-28T04:12:03.581Z,81.33
2023-05-28T04:14:32.439Z,82.10
2023-05-28T04:16:58.983Z,80.59
2023-05-28T04:19:25.788Z,80.60
2023-05-28T04:21:52.396Z,80.16
2023-05-28T04:24:19.483Z,80.15
2023-05-28T04:26:46.229Z,80.09
2023-05-28T04:29:14.174Z,80.49
2023-05-28T04:31:44.898Z,80.58
2023-05-28T04:34:13.064Z,80.54
2023-05-28T04:36:39.546Z,80.39
2023-05-28T04:39:05.962Z,79.83
2023-05-28T04:41:32.508Z,80.56
2023-05-28T04:43:59.448Z,80.52
2023-05-28T04:46:26.670Z,79.47
2023-05-28T04:48:53.513Z,79.75
2023-05-28T04:51:22.059Z,79.64
2023-05-28T04:53:49.145Z,79.82
2023-05-28T04:56:17.953Z,78.97
2023-05-28T04:58:44.469Z,78.60
2023-05-28T05:01:10.936Z,79.15
2023-05-28T05:03:37.492Z,78.54
2023-05-28T05:06:04.405Z,78.11
2023-05-28T05:08:31.046Z,77.02
2023-05-28T05:10:57.566Z,77.08
2023-05-28T05:13:24.636Z,76.58
2023-05-28T05:15:51.486Z,76.71
2023-05-28T05:18:18.546Z,73.64
2023-05-28T05:20:47.764Z,74.95
2023-05-28T05:23:14.235Z,73.79
2023-05-28T05:25:41.028Z,73.45
2023-05-28T05:28:07.507Z,72.39
2023-05-28T05:30:34.083Z,72.58
2023-05-28T05:33:02.950Z,73.40
2023-05-28T05:35:29.505Z,71.34
2023-05-28T05:37:55.947Z,72.48
2023-05-28T05:40:25.129Z,72.57
2023-05-28T05:42:51.570Z,71.91
2023-05-28T05:45:18.024Z,69.81
2023-05-28T05:47:44.588Z,68.88
2023-05-28T05:50:12.646Z,67.84
2023-05-28T05:52:39.876Z,67.83
2023-05-28T05:55:06.998Z,67.43
2023-05-28T05:57:37.488Z,68.82
2023-05-28T06:00:06.555Z,66.88
2023-05-28T06:02:33.015Z,68.30
2023-05-28T06:04:59.567Z,64.57
2023-05-28T06:07:26.182Z,63.46
2023-05-28T06:09:52.716Z,61.84
2023-05-28T06:12:19.170Z,61.16
2023-05-28T06:14:46.198Z,62.88
2023-05-28T06:17:12.764Z,60.43
2023-05-28T06:19:39.948Z,59.22
2023-05-28T06:22:06.389Z,57.29
2023-05-28T06:24:32.874Z,56.81
2023-05-28T06:26:59.524Z,56.91
2023-05-28T06:29:26.030Z,55.85
2023-05-28T06:31:52.775Z,55.52
2023-05-28T06:34:19.298Z,57.34
2023-05-28T06:36:45.913Z,54.94
2023-05-28T06:39:16.971Z,59.65
2023-05-28T06:41:43.404Z,56.97
2023-05-28T06:44:12.271Z,59.41
2023-05-28T06:46:38.842Z,58.74
2023-05-28T06:49:05.328Z,56.29
2023-05-28T06:51:32.225Z,56.44
2023-05-28T06:53:58.729Z,52.95
2023-05-28T06:56:25.559Z,55.56
2023-05-28T06:58:55.759Z,56.33
2023-05-28T07:01:22.262Z,56.03
2023-05-28T07:03:49.013Z,54.67
2023-05-28T07:06:15.964Z,51.63
2023-05-28T07:08:45.438Z,51.38
2023-05-28T07:11:13.162Z,52.96
2023-05-28T07:13:41.074Z,51.94
2023-05-28T07:16:11.106Z,51.52
2023-05-28T07:18:40.117Z,53.70
2023-05-28T07:21:06.851Z,53.51
2023-05-28T07:23:33.362Z,54.98
2023-05-28T07:26:01.620Z,54.40
2023-05-28T07:28:32.143Z,49.59
2023-05-28T07:30:58.600Z,46.48
2023-05-28T07:33:25.716Z,49.32
2023-05-28T07:35:52.360Z,49.98
2023-05-28T07:38:21.278Z,48.81
2023-05-28T07:40:47.842Z,49.31
2023-05-28T07:43:14.336Z,47.58
2023-05-28T07:45:40.934Z,47.63
2023-05-28T07:48:07.538Z,46.71
2023-05-28T07:50:36.221Z,42.61
2023-05-28T07:53:02.707Z,46.20
2023-05-28T07:55:31.809Z,44.66
2023-05-28T07:57:59.664Z,45.87
2023-05-28T08:00:27.457Z,40.70
2023-05-28T08:02:54.438Z,44.39
2023-05-28T08:05:24.147Z,43.21
2023-05-28T08:07:50.893Z,41.31
2023-05-28T08:10:17.458Z,43.03
2023-05-28T08:12:43.921Z,44.25
2023-05-28T08:15:11.033Z,45.38
2023-05-28T08:17:39.971Z,41.82
2023-05-28T08:20:08.265Z,39.92
2023-05-28T08:22:34.866Z,40.72
2023-05-28T08:25:03.996Z,43.23
2023-05-28T08:27:32.085Z,41.46
2023-05-28T08:30:00.894Z,40.83
2023-05-28T08:32:29.844Z,41.64
2023-05-28T08:35:00.907Z,42.52
2023-05-28T08:37:27.399Z,41.43
2023-05-28T08:39:53.886Z,43.29
2023-05-28T08:42:23.050Z,40.49
2023-05-28T08:44:49.654Z,42.25
2023-05-28T08:47:17.095Z,41.98
2023-05-28T08:49:51.936Z,39.24
2023-05-28T08:52:20.775Z,40.98
2023-05-28T08:54:47.996Z,40.36
2023-05-28T08:57:15.437Z,39.05
2023-05-28T08:59:41.929Z,38.01
2023-05-28T09:02:10.122Z,38.75
2023-05-28T09:04:36.702Z,39.99
2023-05-28T09:07:06.808Z,38.68
2023-05-28T09:09:34.473Z,40.63
2023-05-28T09:12:06.476Z,39.69
2023-05-28T09:14:41.925Z,37.88
2023-05-28T09:17:10.173Z,37.71
2023-05-28T09:19:37.281Z,37.20
2023-05-28T09:22:04.797Z,39.11
2023-05-28T09:24:31.777Z,39.09
2023-05-28T09:26:59.216Z,40.05
2023-05-28T09:29:29.690Z,37.36
2023-05-28T09:32:03.128Z,39.09
2023-05-28T09:34:32.967Z,36.75
2023-05-28T09:37:06.175Z,39.70
2023-05-28T09:39:36.689Z,36.79
2023-05-28T09:42:13.036Z,35.78
2023-05-28T09:44:41.519Z,34.97
2023-05-28T09:47:15.886Z,38.15
2023-05-28T09:49:47.379Z,35.94
2023-05-28T09:52:22.090Z,36.04
2023-05-28T09:54:56.677Z,35.37
2023-05-28T09:57:30.524Z,35.08
2023-05-28T09:59:57.424Z,38.32
2023-05-28T10:02:26.590Z,36.17
2023-05-28T10:05:00.907Z,36.66
2023-05-28T10:07:29.696Z,37.17
2023-05-28T10:10:01.067Z,34.53
2023-05-28T10:12:30.101Z,34.24
2023-05-28T10:14:57.338Z,33.42
2023-05-28T10:17:24.615Z,36.95
2023-05-28T10:19:51.578Z,34.97
2023-05-28T10:22:18.439Z,34.17
2023-05-28T10:24:46.331Z,34.04
2023-05-28T10:27:16.792Z,33.27
2023-05-28T10:29:44.680Z,33.80
2023-05-28T10:32:15.158Z,36.59
2023-05-28T10:34:42.269Z,35.47
2023-05-28T10:37:10.078Z,33.84
2023-05-28T10:39:44.347Z,33.25
2023-05-28T10:42:15.240Z,34.14
2023-05-28T10:44:51.957Z,36.20
2023-05-28T10:47:20.145Z,32.92
2023-05-28T10:50:15.898Z,30.39
2023-05-28T10:53:03.278Z,30.68
2023-05-28T10:55:30.065Z,31.09
2023-05-28T10:58:08.641Z,33.15
2023-05-28T11:00:42.057Z,36.02
2023-05-28T11:03:08.766Z,34.71
2023-05-28T11:05:39.593Z,36.25
2023-05-28T11:08:06.714Z,33.46
2023-05-28T11:10:34.458Z,31.47
2023-05-28T11:13:01.282Z,30.42
2023-05-28T11:15:27.727Z,31.51
2023-05-28T11:17:54.267Z,31.41
2023-05-28T11:20:26.358Z,32.09
2023-05-28T11:22:54.713Z,30.43
2023-05-28T11:25:23.147Z,31.58
2023-05-28T11:27:51.517Z,32.37
2023-05-28T11:30:23.589Z,32.36
2023-05-28T11:32:54.998Z,33.92
2023-05-28T11:35:21.790Z,31.42
2023-05-28T11:37:48.310Z,31.24
2023-05-28T11:40:16.003Z,30.52
2023-05-28T11:42:43.888Z,32.17
2023-05-28T11:45:12.721Z,30.70
2023-05-28T11:47:39.840Z,32.65
2023-05-28T11:50:13.739Z,29.87
2023-05-28T11:52:40.724Z,32.15
2023-05-28T11:55:08.010Z,29.87
2023-05-28T11:57:34.772Z,27.78
2023-05-28T12:00:19.799Z,30.71
2023-05-28T12:02:48.434Z,30.43
2023-05-28T12:05:16.984Z,29.53
2023-05-28T12:07:52.123Z,29.17
2023-05-28T12:10:22.597Z,28.69
2023-05-28T12:12:56.421Z,31.21
2023-05-28T12:15:29.764Z,31.11
2023-05-28T12:18:02.200Z,28.88
2023-05-28T12:20:42.086Z,30.79
2023-05-28T12:23:09.975Z,29.84
2023-05-28T12:25:52.522Z,29.29
2023-05-28T12:28:23.824Z,29.29
2023-05-28T12:30:55.977Z,28.64
2023-05-28T12:33:23.441Z,29.85
2023-05-28T12:35:50.837Z,30.05
2023-05-28T12:38:20.259Z,28.83
2023-05-28T12:40:48.924Z,29.75
2023-05-28T12:43:16.275Z,30.62
2023-05-28T12:45:42.840Z,28.46
2023-05-28T12:48:12.009Z,27.65
2023-05-28T12:50:38.512Z,28.76
2023-05-28T12:53:05.815Z,30.57
2023-05-28T12:55:35.257Z,28.50
2023-05-28T12:58:02.185Z,33.03
2023-05-28T13:00:34.429Z,28.77
2023-05-28T13:03:03.786Z,28.81
2023-05-28T13:05:34.389Z,28.43
2023-05-28T13:08:03.955Z,29.46
2023-05-28T13:10:33.106Z,30.20
2023-05-28T13:12:59.527Z,29.04
2023-05-28T13:15:26.127Z,27.64
2023-05-28T13:17:52.718Z,28.33
2023-05-28T13:20:21.920Z,29.23
2023-05-28T13:22:48.349Z,31.47
2023-05-28T13:25:19.638Z,28.57
2023-05-28T13:27:45.984Z,29.22
2023-05-28T13:30:15.175Z,30.89
2023-05-28T13:32:46.292Z,29.39
2023-05-28T13:35:12.853Z,28.54
2023-05-28T13:37:39.789Z,28.61
2023-05-28T13:40:11.906Z,28.58
2023-05-28T13:42:38.917Z,30.39
2023-05-28T13:45:08.194Z,31.84
2023-05-28T13:47:34.646Z,31.17
2023-05-28T13:50:06.052Z,29.06
2023-05-28T13:52:32.863Z,30.55
2023-05-28T13:54:59.450Z,29.80
2023-05-28T13:57:30.721Z,29.82
2023-05-28T13:59:57.527Z,29.30
2023-05-28T14:02:26.595Z,28.71
2023-05-28T14:04:55.683Z,29.13
2023-05-28T14:07:24.594Z,28.72
2023-05-28T14:09:51.639Z,30.13
2023-05-28T14:12:22.430Z,28.94
2023-05-28T14:14:52.039Z,30.07
2023-05-28T14:17:18.543Z,29.37
2023-05-28T14:19:48.588Z,29.74
2023-05-28T14:22:15.429Z,30.28
2023-05-28T14:24:44.469Z,29.99
2023-05-28T14:27:11.008Z,30.26
2023-05-28T14:29:37.496Z,31.41
2023-05-28T14:32:06.880Z,30.38
2023-05-28T14:34:33.741Z,31.30
2023-05-28T14:37:01.212Z,29.95
2023-05-28T14:39:28.737Z,30.89
2023-05-28T14:41:55.332Z,30.44
2023-05-28T14:44:21.846Z,31.02
2023-05-28T14:46:48.509Z,29.75
2023-05-28T14:49:22.478Z,29.89
2023-05-28T14:51:53.602Z,30.32
2023-05-28T14:54:20.011Z,29.42
2023-05-28T14:56:46.439Z,31.26
2023-05-28T14:59:13.044Z,30.47
2023-05-28T15:01:39.573Z,29.36
2023-05-28T15:04:06.941Z,31.19
2023-05-28T15:06:36.386Z,31.74
2023-05-28T15:09:02.851Z,30.39
2023-05-28T15:11:29.232Z,32.78
2023-05-28T15:14:00.640Z,30.13
2023-05-28T15:16:27.043Z,30.64
2023-05-28T15:18:53.674Z,30.19
2023-05-28T15:21:20.160Z,30.47
2023-05-28T15:23:46.696Z,30.95
2023-05-28T15:26:13.303Z,30.14
2023-05-28T15:28:40.014Z,30.36
2023-05-28T15:31:06.766Z,30.60
2023-05-28T15:33:34.396Z,31.68
2023-05-28T15:36:03.452Z,32.01
2023-05-28T15:38:30.174Z,31.95
2023-05-28T15:40:57.664Z,31.00
2023-05-28T15:43:26.482Z,30.32
2023-05-28T15:45:53.449Z,31.97
2023-05-28T15:48:24.867Z,32.44
2023-05-28T15:50:51.436Z,32.12
2023-05-28T15:53:21.937Z,30.98
2023-05-28T15:55:51.201Z,31.42
2023-05-28T15:58:22.605Z,30.94
2023-05-28T16:00:51.580Z,31.69
2023-05-28T16:03:19.961Z,31.38
2023-05-28T16:05:47.232Z,31.65
2023-05-28T16:08:18.530Z,32.83
2023-05-28T16:10:45.275Z,32.04
2023-05-28T16:13:17.391Z,31.13
2023-05-28T16:15:46.726Z,32.10
2023-05-28T16:18:14.651Z,31.64
2023-05-28T16:20:41.528Z,32.52
2023-05-28T16:23:08.272Z,32.88
2023-05-28T16:25:36.100Z,30.93
2023-05-28T16:28:02.839Z,32.15
2023-05-28T16:30:30.682Z,32.08
2023-05-28T16:32:58.894Z,31.35
2023-05-28T16:35:28.089Z,30.42
2023-05-28T16:37:54.751Z,32.42
2023-05-28T16:40:21.442Z,32.21
2023-05-28T16:42:51.229Z,31.41
2023-05-28T16:45:17.993Z,32.47
2023-05-28T16:47:48.938Z,31.39
2023-05-28T16:50:17.032Z,32.81
2023-05-28T16:52:43.562Z,31.66
2023-05-28T16:55:10.671Z,31.84
2023-05-28T16:57:37.213Z,30.75
2023-05-28T17:00:08.008Z,31.89
2023-05-28T17:02:34.958Z,32.55
2023-05-28T17:05:01.948Z,32.06
2023-05-28T17:07:28.438Z,32.05
2023-05-28T17:10:02.102Z,31.41
2023-05-28T17:12:28.535Z,31.62
2023-05-28T17:14:54.989Z,31.83
2023-05-28T17:17:23.884Z,31.22
2023-05-28T17:19:50.350Z,32.38
2023-05-28T17:22:17.060Z,32.97
2023-05-28T17:24:45.981Z,32.44
2023-05-28T17:27:15.333Z,32.00
2023-05-28T17:29:43.887Z,32.31
2023-05-28T17:32:13.412Z,32.85
2023-05-28T17:34:44.822Z,33.65
2023-05-28T17:37:11.643Z,34.47
2023-05-28T17:39:38.041Z,35.09
2023-05-28T17:42:04.802Z,35.04
2023-05-28T17:44:33.176Z,35.22
2023-05-28T17:46:59.926Z,34.74
2023-05-28T17:49:26.465Z,35.12
2023-05-28T17:51:53.806Z,32.94
2023-05-28T17:54:21.624Z,32.40
2023-05-28T17:56:48.340Z,32.62
2023-05-28T17:59:15.091Z,32.29
2023-05-28T18:01:43.144Z,32.47
2023-05-28T18:04:10.041Z,32.71
2023-05-28T18:06:37.896Z,32.72
2023-05-28T18:09:10.657Z,32.72
2023-05-28T18:11:40.211Z,34.04
2023-05-28T18:14:06.650Z,33.77
2023-05-28T18:16:33.288Z,34.45
2023-05-28T18:19:03.152Z,34.15
2023-05-28T18:21:30.095Z,33.77
2023-05-28T18:24:09.919Z,34.02
2023-05-28T18:26:37.415Z,34.46
2023-05-28T18:29:06.720Z,34.15
2023-05-28T18:31:36.135Z,34.00
2023-05-28T18:34:04.040Z,34.70
2023-05-28T18:36:34.932Z,34.65
2023-05-28T18:39:01.442Z,33.85
2023-05-28T18:41:27.972Z,34.27
2023-05-28T18:43:55.112Z,35.46
2023-05-28T18:46:21.814Z,34.88
2023-05-28T18:48:50.926Z,35.99
2023-05-28T18:51:17.380Z,36.88
2023-05-28T18:53:46.817Z,36.40
2023-05-28T18:56:13.316Z,37.61
2023-05-28T18:58:42.432Z,39.35
2023-05-28T19:01:08.993Z,39.27
2023-05-28T19:03:36.837Z,39.85
2023-05-28T19:06:07.673Z,39.72
2023-05-28T19:08:36.362Z,40.12
2023-05-28T19:11:03.504Z,41.08
2023-05-28T19:13:29.955Z,40.56
2023-05-28T19:15:56.668Z,41.92
2023-05-28T19:18:23.516Z,41.37
2023-05-28T19:20:51.042Z,42.40
2023-05-28T19:23:19.891Z,42.42
2023-05-28T19:25:46.400Z,42.98
2023-05-28T19:28:12.782Z,43.64
2023-05-28T19:30:39.471Z,42.68
2023-05-28T19:33:06.266Z,44.07
2023-05-28T19:35:39.805Z,43.68
2023-05-28T19:38:08.870Z,44.05
2023-05-28T19:40:35.452Z,44.83
2023-05-28T19:43:02.080Z,45.03
2023-05-28T19:45:30.730Z,45.31
2023-05-28T19:47:57.358Z,44.97
2023-05-28T19:50:24.465Z,46.23
2023-05-28T19:52:53.688Z,46.20
2023-05-28T19:55:20.509Z,47.58
2023-05-28T19:57:46.979Z,46.91
2023-05-28T20:00:13.953Z,48.60
2023-05-28T20:02:40.544Z,48.78
2023-05-28T20:05:10.209Z,49.33
2023-05-28T20:07:40.809Z,49.59
2023-05-28T20:10:13.995Z,49.96
2023-05-28T20:12:40.434Z,50.98
2023-05-28T20:15:08.511Z,49.24
2023-05-28T20:17:35.073Z,50.22
2023-05-28T20:20:02.704Z,51.09
2023-05-28T20:22:29.751Z,51.47
2023-05-28T20:24:59.049Z,51.14
2023-05-28T20:27:26.320Z,52.06
2023-05-28T20:29:52.772Z,52.22
2023-05-28T20:32:22.691Z,52.37
2023-05-28T20:34:49.315Z,53.19
2023-05-28T20:37:15.709Z,52.64
2023-05-28T20:39:42.183Z,51.65
2023-05-28T20:42:10.538Z,52.79
2023-05-28T20:44:37.167Z,52.49
2023-05-28T20:47:06.367Z,52.52
2023-05-28T20:49:32.955Z,52.95
2023-05-28T20:51:59.528Z,53.29
2023-05-28T20:54:26.375Z,51.02
2023-05-28T20:56:55.546Z,52.97
2023-05-28T20:59:22.272Z,52.93
2023-05-28T21:01:49.233Z,52.95
2023-05-28T21:04:20.944Z,53.67
2023-05-28T21:06:47.353Z,53.19
2023-05-28T21:09:16.609Z,53.62
2023-05-28T21:11:43.088Z,52.17
2023-05-28T21:14:09.561Z,50.73
2023-05-28T21:16:38.407Z,50.13
2023-05-28T21:19:04.964Z,50.95
2023-05-28T21:21:31.476Z,51.69
2023-05-28T21:23:57.885Z,49.95
2023-05-28T21:26:24.378Z,49.60
2023-05-28T21:28:50.845Z,50.07
2023-05-28T21:31:17.720Z,50.75
2023-05-28T21:33:44.263Z,50.57
2023-05-28T21:36:11.724Z,50.82
2023-05-28T21:38:38.134Z,51.16
2023-05-28T21:41:07.162Z,50.34
2023-05-28T21:43:36.052Z,50.64
2023-05-28T21:46:04.849Z,50.86
2023-05-28T21:48:33.613Z,50.55
2023-05-28T21:51:03.867Z,49.84
2023-05-28T21:53:30.416Z,51.18
2023-05-28T21:55:57.003Z,50.54
2023-05-28T21:58:23.506Z,51.05
2023-05-28T22:00:50.086Z,52.27
2023-05-28T22:03:16.658Z,52.00
2023-05-28T22:05:43.290Z,52.84
2023-05-28T22:08:09.813Z,52.83
2023-05-28T22:10:36.469Z,53.39
2023-05-28T22:13:02.996Z,53.76
2023-05-28T22:15:29.629Z,55.20
2023-05-28T22:17:56.479Z,54.10
2023-05-28T22:20:31.244Z,51.89
2023-05-28T22:23:05.360Z,52.61
2023-05-28T22:25:34.069Z,52.13
2023-05-28T22:28:00.566Z,50.25
2023-05-28T22:30:27.264Z,47.89
2023-05-28T22:32:59.310Z,47.76
2023-05-28T22:35:27.028Z,47.29
2023-05-28T22:37:55.906Z,46.43
2023-05-28T22:40:22.762Z,45.41
2023-05-28T22:42:49.443Z,45.33
2023-05-28T22:45:19.221Z,45.30
2023-05-28T22:47:48.597Z,44.41
2023-05-28T22:50:18.097Z,44.34
2023-05-28T22:52:45.755Z,44.04
2023-05-28T22:55:12.436Z,43.85
2023-05-28T22:57:39.299Z,44.61
2023-05-28T23:00:25.430Z,43.60
2023-05-28T23:02:52.667Z,43.09
2023-05-28T23:05:21.887Z,43.82
2023-05-28T23:07:48.479Z,43.25
2023-05-28T23:10:15.575Z,43.32
2023-05-28T23:12:42.036Z,43.73
2023-05-28T23:15:11.544Z,42.94
2023-05-28T23:17:39.039Z,42.99
2023-05-28T23:20:06.948Z,43.68
2023-05-28T23:22:33.592Z,44.42
2023-05-28T23:25:00.336Z,43.16
2023-05-28T23:27:31.538Z,43.01
2023-05-28T23:30:00.470Z,45.08
2023-05-28T23:32:27.198Z,44.26
2023-05-28T23:34:58.686Z,45.04
2023-05-28T23:37:25.141Z,45.08
2023-05-28T23:39:51.546Z,46.54
2023-05-28T23:42:17.968Z,45.25
2023-05-28T23:44:45.310Z,45.90
2023-05-28T23:47:11.855Z,46.77
2023-05-28T23:49:38.417Z,48.52
2023-05-28T23:52:05.138Z,47.71
2023-05-28T23:54:34.380Z,48.28
2023-05-28T23:57:00.806Z,49.37
2023-05-28T23:59:27.544Z,49.51
